createdAt,value
2023-02-25T00:01:27.373Z,-6.19056
2023-02-25T00:06:29.056Z,-6.22136
2023-02-25T00:11:30.678Z,-6.17944
2023-02-25T00:16:32.430Z,-6.2131
2023-02-25T00:21:34.088Z,-5.88445
2023-02-25T00:26:35.684Z,-5.81904
2023-02-25T00:31:37.477Z,-6.25343
2023-02-25T00:36:39.299Z,-6.82722
2023-02-25T00:41:40.868Z,-6.89518
2023-02-25T00:46:42.574Z,-6.85358
2023-02-25T00:51:44.211Z,-6.80341
2023-02-25T00:56:45.864Z,-7.09713
2023-02-25T01:01:47.511Z,-7.34925
2023-02-25T01:06:49.087Z,-7.2578
2023-02-25T01:11:50.982Z,-7.45372
2023-02-25T01:16:52.645Z,-7.28924
2023-02-25T01:21:54.449Z,-7.35878
2023-02-25T01:26:56.128Z,-7.74236
2023-02-25T01:31:58.105Z,-7.15683
2023-02-25T01:36:59.826Z,-6.99965
2023-02-25T01:42:01.486Z,-7.0803
2023-02-25T01:47:03.129Z,-7.59471
2023-02-25T01:52:04.699Z,-7.83318
2023-02-25T01:57:06.386Z,-8.16309
2023-02-25T02:02:08.077Z,-7.92971
2023-02-25T02:07:09.770Z,-7.83477
2023-02-25T02:12:11.403Z,-7.91574
2023-02-25T02:17:13.083Z,-7.83477
2023-02-25T02:22:14.739Z,-8.4222
2023-02-25T02:27:16.588Z,-8.41045
2023-02-25T02:32:18.375Z,-8.5851
2023-02-25T02:37:20.098Z,-8.52445
2023-02-25T02:42:21.738Z,-7.42927
2023-02-25T02:47:23.317Z,-7.93511
2023-02-25T02:52:24.949Z,-7.46579
2023-02-25T02:57:26.580Z,-7.55629
2023-02-25T03:02:28.208Z,-7.38641
2023-02-25T03:07:29.992Z,-8.72608
2023-02-25T03:12:32.309Z,-8.35298
2023-02-25T03:17:33.936Z,-7.35179
2023-02-25T03:22:35.808Z,-8.33583
2023-02-25T03:27:37.427Z,-6.99203
2023-02-25T03:32:39.094Z,-7.57375
2023-02-25T03:37:40.767Z,-7.06506
2023-02-25T03:42:42.386Z,-7.57661
2023-02-25T03:47:44.125Z,-7.42387
2023-02-25T03:52:45.977Z,-7.58487
2023-02-25T03:57:47.844Z,-7.64139
2023-02-25T04:02:49.551Z,-7.23399
2023-02-25T04:07:51.236Z,-7.07967
2023-02-25T04:12:52.902Z,-7.48198
2023-02-25T04:17:54.500Z,-8.5762
2023-02-25T04:22:56.139Z,-8.89056
2023-02-25T04:27:57.767Z,-7.70235
2023-02-25T04:32:59.344Z,-7.51501
2023-02-25T04:38:00.952Z,-7.99639
2023-02-25T04:43:02.730Z,-8.58541
2023-02-25T04:48:04.329Z,-8.66734
2023-02-25T04:53:05.991Z,-7.95289
2023-02-25T04:58:07.662Z,-8.64765
2023-02-25T05:03:09.305Z,-8.70544
2023-02-25T05:08:10.928Z,-7.6598
2023-02-25T05:13:12.543Z,-7.39117
2023-02-25T05:18:14.160Z,-7.49469
2023-02-25T05:23:15.822Z,-7.44039
2023-02-25T05:28:17.453Z,-7.73442
2023-02-25T05:33:19.045Z,-8.22597
2023-02-25T05:38:20.697Z,-8.33234
2023-02-25T05:43:22.338Z,-8.65146
2023-02-25T05:48:24.003Z,-8.90453
2023-02-25T05:53:25.837Z,-8.03195
2023-02-25T05:58:27.465Z,-8.3895
2023-02-25T06:03:29.128Z,-8.34123
2023-02-25T06:08:30.729Z,-8.36695
2023-02-25T06:13:32.486Z,-8.73783
2023-02-25T06:18:34.136Z,-8.2755
2023-02-25T06:23:35.782Z,-8.11292
2023-02-25T06:28:37.455Z,-7.93828
2023-02-25T06:33:39.104Z,-8.03703
2023-02-25T06:38:40.689Z,-7.55406
2023-02-25T06:43:42.337Z,-7.72172
2023-02-25T06:48:44.000Z,-7.73474
2023-02-25T06:53:45.869Z,-7.76586
2023-02-25T06:58:47.495Z,-8.60955
2023-02-25T07:03:49.118Z,-8.09768
2023-02-25T07:08:50.957Z,-8.24851
2023-02-25T07:13:52.755Z,-9.10489
2023-02-25T07:18:54.423Z,-8.45935
2023-02-25T07:23:55.977Z,-8.75529
2023-02-25T07:28:57.613Z,-9.51673
2023-02-25T07:33:59.279Z,-10.01747
2023-02-25T07:39:00.910Z,-9.83203
2023-02-25T07:44:02.527Z,-9.99429
2023-02-25T07:49:04.298Z,-10.40739
2023-02-25T07:54:06.187Z,-9.88855
2023-02-25T07:59:07.817Z,-9.07282
2023-02-25T08:04:09.477Z,-8.50571
2023-02-25T08:09:11.208Z,-8.28947
2023-02-25T08:14:12.831Z,-8.32123
2023-02-25T08:19:14.487Z,-7.92812
2023-02-25T08:24:16.177Z,-8.19707
2023-02-25T08:29:17.787Z,-8.51365
2023-02-25T08:34:19.550Z,-8.15008
2023-02-25T08:39:21.204Z,-7.91796
2023-02-25T08:44:22.804Z,-8.19263
2023-02-25T08:49:24.405Z,-8.79054
2023-02-25T08:54:25.989Z,-9.18777
2023-02-25T08:59:27.668Z,-9.30684
2023-02-25T09:04:29.401Z,-9.00868
2023-02-25T09:09:31.034Z,-9.56118
2023-02-25T09:14:32.691Z,-9.71074
2023-02-25T09:19:34.332Z,-9.75138
2023-02-25T09:24:36.009Z,-9.84759
2023-02-25T09:29:37.594Z,-8.83785
2023-02-25T09:34:39.232Z,-9.10807
2023-02-25T09:39:40.873Z,-9.49037
2023-02-25T09:44:42.529Z,-9.43322
2023-02-25T09:49:44.112Z,-8.14214
2023-02-25T09:54:45.770Z,-8.14849
2023-02-25T09:59:47.403Z,-9.08394
2023-02-25T10:04:48.972Z,-9.00074
2023-02-25T10:09:50.803Z,-8.02783
2023-02-25T10:14:52.479Z,-7.80428
2023-02-25T10:19:54.065Z,-7.92971
2023-02-25T10:24:55.712Z,-7.79253
2023-02-25T10:29:57.292Z,-7.82968
2023-02-25T10:34:58.910Z,-7.76777
2023-02-25T10:40:02.934Z,-8.00973
2023-02-25T10:45:06.145Z,-7.94749
2023-02-25T10:50:07.778Z,-7.95575
2023-02-25T10:55:09.444Z,-8.36251
2023-02-25T11:00:11.120Z,-8.99534
2023-02-25T11:05:12.768Z,-7.90049
2023-02-25T11:10:14.400Z,-7.83064
2023-02-25T11:15:16.045Z,-8.11959
2023-02-25T11:20:17.785Z,-8.07482
2023-02-25T11:25:19.461Z,-7.92526
2023-02-25T11:30:21.164Z,-7.86207
2023-02-25T11:35:22.827Z,-7.71855
2023-02-25T11:40:24.645Z,-8.33329
2023-02-25T11:45:26.256Z,-7.99734
2023-02-25T11:50:27.873Z,-9.16427
2023-02-25T11:55:29.497Z,-9.09664
2023-02-25T12:00:31.172Z,-9.71836
2023-02-25T12:05:32.812Z,-9.07536
2023-02-25T12:10:34.415Z,-8.35139
2023-02-25T12:15:35.979Z,-8.51048
2023-02-25T12:20:37.538Z,-9.01757
2023-02-25T12:25:39.171Z,-8.82896
2023-02-25T12:30:40.813Z,-9.26112
2023-02-25T12:35:42.393Z,-8.58954
2023-02-25T12:40:44.017Z,-8.72005
2023-02-25T12:45:45.716Z,-9.49101
2023-02-25T12:50:47.416Z,-9.66533
2023-02-25T12:55:49.043Z,-9.72344
2023-02-25T13:00:50.794Z,-9.0887
2023-02-25T13:05:52.462Z,-9.2227
2023-02-25T13:10:54.077Z,-9.60881
2023-02-25T13:15:55.684Z,-10.43438
2023-02-25T13:20:57.289Z,-10.34071
2023-02-25T13:25:58.907Z,-9.98445
2023-02-25T13:31:00.660Z,-9.86125
2023-02-25T13:36:02.311Z,-9.43544
2023-02-25T13:41:03.934Z,-9.92221
2023-02-25T13:46:05.616Z,-10.5471
2023-02-25T13:51:07.289Z,-9.66851
2023-02-25T13:56:08.884Z,-9.55991
2023-02-25T14:01:10.677Z,-10.0797
2023-02-25T14:06:12.371Z,-9.86855
2023-02-25T14:11:13.998Z,-10.32483
2023-02-25T14:16:15.613Z,-10.99894
2023-02-25T14:21:17.275Z,-10.81604
2023-02-25T14:26:18.865Z,-10.71761
2023-02-25T14:31:20.566Z,-10.27117
2023-02-25T14:36:22.454Z,-10.79064
2023-02-25T14:41:24.542Z,-10.61505
2023-02-25T14:46:26.424Z,-10.58679
2023-02-25T14:51:28.128Z,-10.84081
2023-02-25T14:56:29.821Z,-10.49725
2023-02-25T15:01:31.507Z,-9.98381
2023-02-25T15:06:33.128Z,-10.70428
2023-02-25T15:11:34.742Z,-10.7627
2023-02-25T15:16:36.363Z,-10.60807
2023-02-25T15:21:37.986Z,-10.22767
2023-02-25T15:26:39.609Z,-10.15813
2023-02-25T15:31:41.347Z,-9.53133
2023-02-25T15:36:43.148Z,-9.15411
2023-02-25T15:41:44.801Z,-8.6432
2023-02-25T15:46:46.509Z,-8.82007
2023-02-25T15:51:48.225Z,-8.90009
2023-02-25T15:56:49.937Z,-10.0308
2023-02-25T16:01:51.598Z,-9.86188
2023-02-25T16:06:53.266Z,-9.29605
2023-02-25T16:11:54.863Z,-8.48349
2023-02-25T16:16:57.424Z,-8.97661
2023-02-25T16:21:59.222Z,-8.39902
2023-02-25T16:27:00.848Z,-7.69156
2023-02-25T16:32:02.790Z,-7.52136
2023-02-25T16:37:04.556Z,-6.75959
2023-02-25T16:42:06.205Z,-8.05069
2023-02-25T16:47:07.814Z,-8.17802
2023-02-25T16:52:09.469Z,-7.69251
2023-02-25T16:57:11.068Z,-8.03132
2023-02-25T17:02:12.694Z,-8.40251
2023-02-25T17:07:14.341Z,-8.41204
2023-02-25T17:12:15.963Z,-7.35465
2023-02-25T17:17:17.851Z,-6.80722
2023-02-25T17:22:19.612Z,-6.59923
2023-02-25T17:27:21.255Z,-6.17722
2023-02-25T17:32:23.063Z,-6.75609
2023-02-25T17:37:24.737Z,-5.89461
2023-02-25T17:42:26.367Z,-7.06093
2023-02-25T17:47:27.994Z,-6.78785
2023-02-25T17:52:29.611Z,-6.77642
2023-02-25T17:57:31.272Z,-6.2058
2023-02-25T18:02:32.997Z,-6.30424
2023-02-25T18:07:34.977Z,-6.68211
2023-02-25T18:12:36.604Z,-6.11752
2023-02-25T18:17:38.245Z,-6.3706
2023-02-25T18:22:39.889Z,-6.90693
2023-02-25T18:27:41.573Z,-5.71583
2023-02-25T18:32:43.256Z,-5.62946
2023-02-25T18:37:44.921Z,-5.71901
2023-02-25T18:42:46.547Z,-5.7949
2023-02-25T18:47:48.153Z,-5.72123
2023-02-25T18:52:49.735Z,-5.52086
2023-02-25T18:57:51.377Z,-5.69964
2023-02-25T19:02:53.155Z,-5.38496
2023-02-25T19:07:54.821Z,-5.28048
2023-02-25T19:12:56.610Z,-6.69799
2023-02-25T19:17:58.482Z,-6.15944
2023-02-25T19:23:00.136Z,-6.0556
2023-02-25T19:28:01.772Z,-5.42624
2023-02-25T19:33:04.876Z,-5.85968
2023-02-25T19:38:06.729Z,-6.63162
2023-02-25T19:43:08.334Z,-6.18421
2023-02-25T19:48:09.960Z,-4.18654
2023-02-25T19:53:11.807Z,-4.20559
2023-02-25T19:58:13.444Z,-3.88328
2023-02-25T20:03:15.134Z,-4.02237
2023-02-25T20:08:16.896Z,-5.0817
2023-02-25T20:13:18.530Z,-5.08805
2023-02-25T20:18:20.170Z,-5.14743
2023-02-25T20:23:21.757Z,-4.04269
2023-02-25T20:28:23.392Z,-3.91472
2023-02-25T20:33:24.980Z,-3.85248
2023-02-25T20:38:26.734Z,-4.37802
2023-02-25T20:43:28.374Z,-3.67624
2023-02-25T20:48:30.001Z,-4.12779
2023-02-25T20:53:31.650Z,-4.15891
2023-02-25T20:58:33.340Z,-3.45237
2023-02-25T21:03:35.018Z,-3.89059
2023-02-25T21:08:36.663Z,-3.72228
2023-02-25T21:13:38.291Z,-3.45808
2023-02-25T21:18:39.931Z,-4.24497
2023-02-25T21:23:41.666Z,-4.68032
2023-02-25T21:28:43.279Z,-5.22968
2023-02-25T21:33:44.980Z,-5.1595
2023-02-25T21:38:46.566Z,-4.78384
2023-02-25T21:43:48.448Z,-5.05884
2023-02-25T21:48:50.105Z,-5.13759
2023-02-25T21:53:51.782Z,-5.34177
2023-02-25T21:58:53.538Z,-5.38083
2023-02-25T22:03:55.312Z,-5.76728
2023-02-25T22:08:56.999Z,-5.76696
2023-02-25T22:13:58.606Z,-6.39696
2023-02-25T22:19:00.251Z,-5.45164
2023-02-25T22:24:02.089Z,-5.60406
2023-02-25T22:29:03.785Z,-4.64539
2023-02-25T22:34:05.439Z,-4.7451
2023-02-25T22:39:07.067Z,-5.07313
2023-02-25T22:44:08.696Z,-5.58374
2023-02-25T22:49:10.540Z,-6.14166
2023-02-25T22:54:12.191Z,-5.81649
2023-02-25T22:59:13.929Z,-5.14521
2023-02-25T23:04:15.547Z,-5.52531
2023-02-25T23:09:17.156Z,-5.1722
2023-02-25T23:14:18.879Z,-5.08646
2023-02-25T23:19:20.525Z,-6.10101
2023-02-25T23:24:22.174Z,-6.06672
2023-02-25T23:29:23.921Z,-6.40903
2023-02-25T23:34:25.577Z,-6.96758
2023-02-25T23:39:27.170Z,-7.47151
2023-02-25T23:44:28.824Z,-5.92478
2023-02-25T23:49:30.547Z,-6.73768
2023-02-25T23:54:32.232Z,-5.77712
2023-02-25T23:59:33.939Z,-6.86152
